Time;durP1;ratioP1;P1;durP2;ratioP2;P2;SDS_P1;SDS_P2;PMS_P1;PMS_P2;Temp;Humidity;BMP_temperature;BMP_pressure;BME280_temperature;BME280_humidity;BME280_pressure;Samples;Min_cycle;Max_cycle;Signal;HPM_P1;HPM_P2
2022/02/21 00:00:40;;;;;;;;;;;4.40;99.90;;;;;;4171201;28;20020;-53
2022/02/21 00:02:44;;;;;;;;;;;4.30;99.90;;;;;;4174148;28;20043;-53
2022/02/21 00:04:46;;;;;;;;;;;4.30;99.90;;;;;;4172259;28;19928;-52
2022/02/21 00:06:48;;;;;;;;;;;4.20;99.90;;;;;;4171583;28;19944;-53
2022/02/21 00:08:50;;;;;;;;;;;4.20;99.90;;;;;;4170136;28;19929;-53
2022/02/21 00:10:52;;;;;;;;;;;4.20;99.90;;;;;;4164804;28;19925;-53
2022/02/21 00:12:54;;;;;;;;;;;4.30;99.90;;;;;;4178531;28;20392;-53
2022/02/21 00:14:56;;;;;;;;;;;4.30;99.90;;;;;;4173488;28;19931;-53
2022/02/21 00:16:57;;;;;;;;;;;4.30;99.90;;;;;;4167043;28;20006;-53
2022/02/21 00:18:59;;;;;;;;;;;4.30;99.90;;;;;;4174746;28;20019;-53
2022/02/21 00:21:02;;;;;;;;;;;4.30;99.90;;;;;;4172860;28;19929;-54
2022/02/21 00:23:04;;;;;;;;;;;4.30;99.90;;;;;;4164309;28;19940;-52
2022/02/21 00:25:06;;;;;;;;;;;4.20;99.90;;;;;;4167474;28;19932;-52
2022/02/21 00:27:08;;;;;;;;;;;4.20;99.90;;;;;;4171920;28;20655;-52
2022/02/21 00:29:11;;;;;;;;;;;4.10;99.90;;;;;;4164496;28;20019;-53
2022/02/21 00:31:13;;;;;;;;;;;4.00;99.90;;;;;;4170596;28;19929;-53
2022/02/21 00:33:15;;;;;;;;;;;4.00;99.90;;;;;;4177736;28;20443;-52
2022/02/21 00:35:17;;;;;;;;;;;3.90;99.90;;;;;;4163111;28;20325;-53
2022/02/21 00:37:19;;;;;;;;;;;3.70;99.90;;;;;;4176181;28;19929;-53
2022/02/21 00:39:21;;;;;;;;;;;3.90;99.90;;;;;;4167060;28;19924;-52
2022/02/21 00:41:22;;;;;;;;;;;3.90;99.90;;;;;;4172629;28;19932;-53
2022/02/21 00:43:25;;;;;;;;;;;3.80;99.90;;;;;;4175743;28;20720;-53
2022/02/21 00:45:27;;;;;;;;;;;3.90;99.90;;;;;;4176334;28;20637;-53
2022/02/21 00:47:28;;;;;;;;;;;3.80;99.90;;;;;;4174988;28;19951;-53
2022/02/21 00:49:30;;;;;;;;;;;3.80;99.90;;;;;;4174418;28;20368;-53
2022/02/21 00:51:32;;;;;;;;;;;3.70;99.90;;;;;;4171271;28;19929;-53
2022/02/21 00:53:34;;;;;;;;;;;3.80;99.90;;;;;;4174255;28;20070;-53
2022/02/21 00:55:36;;;;;;;;;;;3.80;99.90;;;;;;4173076;28;20356;-52
2022/02/21 00:57:38;;;;;;;;;;;3.80;99.90;;;;;;4174548;28;21717;-53
2022/02/21 00:59:40;;;;;;;;;;;3.90;99.90;;;;;;4164796;28;19929;-53
2022/02/21 01:01:42;;;;;;;;;;;3.90;99.90;;;;;;4169806;28;19932;-52
2022/02/21 01:03:44;;;;;;;;;;;3.70;99.90;;;;;;4171415;28;19932;-53
2022/02/21 01:05:46;;;;;;;;;;;3.70;99.90;;;;;;4173061;28;20293;-52
2022/02/21 01:07:48;;;;;;;;;;;3.70;99.90;;;;;;4172593;28;19928;-52
2022/02/21 01:09:50;;;;;;;;;;;3.60;99.90;;;;;;4172369;28;19979;-52
2022/02/21 01:11:52;;;;;;;;;;;3.50;99.90;;;;;;4170830;28;20336;-52
2022/02/21 01:13:54;;;;;;;;;;;3.60;99.90;;;;;;4168344;28;19972;-52
2022/02/21 01:15:56;;;;;;;;;;;3.70;99.90;;;;;;4176578;28;19925;-53
2022/02/21 01:17:58;;;;;;;;;;;3.50;99.90;;;;;;4168398;28;19929;-52
2022/02/21 01:20:03;;;;;;;;;;;3.30;99.90;;;;;;4165771;28;19968;-53
2022/02/21 01:22:06;;;;;;;;;;;3.20;99.90;;;;;;4173060;28;19979;-52
2022/02/21 01:24:08;;;;;;;;;;;3.10;99.90;;;;;;4169290;28;20309;-52
2022/02/21 01:26:10;;;;;;;;;;;3.20;99.90;;;;;;4169450;28;20451;-52
2022/02/21 01:28:12;;;;;;;;;;;3.10;99.90;;;;;;4163438;28;19925;-52
2022/02/21 01:30:14;;;;;;;;;;;3.10;99.90;;;;;;4169784;28;20484;-52
2022/02/21 01:32:16;;;;;;;;;;;3.10;99.90;;;;;;4165447;28;20376;-53
2022/02/21 01:34:19;;;;;;;;;;;3.10;99.90;;;;;;4170380;28;19960;-52
2022/02/21 01:36:21;;;;;;;;;;;3.20;99.90;;;;;;4176353;28;20020;-52
2022/02/21 01:38:23;;;;;;;;;;;3.10;99.90;;;;;;4171638;28;19924;-53
2022/02/21 01:40:25;;;;;;;;;;;3.00;99.90;;;;;;4173005;28;20024;-52
2022/02/21 01:42:27;;;;;;;;;;;3.00;99.90;;;;;;4171208;28;19936;-53
2022/02/21 01:44:37;;;;;;;;;;;3.00;99.90;;;;;;4176168;28;19939;-52
2022/02/21 01:46:39;;;;;;;;;;;3.10;99.90;;;;;;4172425;28;19925;-53
2022/02/21 01:48:42;;;;;;;;;;;3.10;99.90;;;;;;4173839;28;19931;-52
2022/02/21 01:50:44;;;;;;;;;;;3.20;99.90;;;;;;4163599;28;19925;-53
2022/02/21 01:52:46;;;;;;;;;;;3.10;99.90;;;;;;4165990;28;19960;-53
2022/02/21 01:54:50;;;;;;;;;;;3.10;99.90;;;;;;4167497;28;19963;-53
2022/02/21 01:56:53;;;;;;;;;;;3.00;99.90;;;;;;4161550;28;19929;-53
2022/02/21 01:58:55;;;;;;;;;;;3.20;99.90;;;;;;4166113;28;20031;-53
2022/02/21 02:00:57;;;;;;;;;;;3.10;99.90;;;;;;4166487;28;19925;-52
2022/02/21 02:02:59;;;;;;;;;;;3.10;99.90;;;;;;4162788;28;19960;-51
2022/02/21 02:05:01;;;;;;;;;;;3.10;99.90;;;;;;4176385;28;20444;-52
2022/02/21 02:07:04;;;;;;;;;;;3.00;99.90;;;;;;4170288;28;19933;-52
2022/02/21 02:09:07;;;;;;;;;;;2.90;99.90;;;;;;4177155;28;20412;-53
2022/02/21 02:11:09;;;;;;;;;;;2.80;99.90;;;;;;4164793;28;19972;-52
2022/02/21 02:13:11;;;;;;;;;;;2.70;99.90;;;;;;4163222;28;20911;-52
2022/02/21 02:15:17;;;;;;;;;;;2.70;99.90;;;;;;4165388;28;19925;-52
2022/02/21 02:17:19;;;;;;;;;;;2.50;99.90;;;;;;4175594;28;19924;-53
2022/02/21 02:19:21;;;;;;;;;;;2.40;99.90;;;;;;4173371;28;19929;-52
2022/02/21 02:21:26;;;;;;;;;;;2.50;99.90;;;;;;4177243;28;19929;-53
2022/02/21 02:23:28;;;;;;;;;;;2.40;99.90;;;;;;4167953;28;19979;-51
2022/02/21 02:25:30;;;;;;;;;;;2.30;99.90;;;;;;4163610;28;20340;-52
2022/02/21 02:27:32;;;;;;;;;;;2.20;99.90;;;;;;4172152;28;19932;-52
2022/02/21 02:29:34;;;;;;;;;;;2.20;99.90;;;;;;4169768;28;19928;-51
2022/02/21 02:31:36;;;;;;;;;;;2.10;99.90;;;;;;4172820;28;20024;-51
2022/02/21 02:33:38;;;;;;;;;;;2.10;99.90;;;;;;4180665;28;19963;-53
2022/02/21 02:35:40;;;;;;;;;;;2.10;99.90;;;;;;4177860;28;19933;-52
2022/02/21 02:37:42;;;;;;;;;;;2.10;99.90;;;;;;4177223;28;19925;-53
2022/02/21 02:39:44;;;;;;;;;;;2.00;99.90;;;;;;4170597;28;19929;-53
2022/02/21 02:41:46;;;;;;;;;;;2.00;99.90;;;;;;4175903;28;20454;-53
2022/02/21 02:43:48;;;;;;;;;;;1.90;99.90;;;;;;4173463;28;19972;-52
2022/02/21 02:45:50;;;;;;;;;;;1.90;99.90;;;;;;4172783;28;19929;-52
2022/02/21 02:47:51;;;;;;;;;;;1.80;99.90;;;;;;4169182;28;20337;-53
2022/02/21 02:49:53;;;;;;;;;;;1.70;99.90;;;;;;4165165;28;19980;-53
2022/02/21 02:51:55;;;;;;;;;;;1.90;99.90;;;;;;4189133;28;20023;-52
2022/02/21 02:53:57;;;;;;;;;;;2.00;99.90;;;;;;4169185;28;20380;-53
2022/02/21 02:55:59;;;;;;;;;;;2.00;99.90;;;;;;4166239;28;19971;-53
2022/02/21 02:58:01;;;;;;;;;;;1.70;99.90;;;;;;4170719;28;20024;-53
2022/02/21 03:00:03;;;;;;;;;;;1.80;99.90;;;;;;4167191;28;19968;-53
2022/02/21 03:02:05;;;;;;;;;;;1.90;99.90;;;;;;4181668;28;19924;-51
2022/02/21 03:04:08;;;;;;;;;;;2.00;99.90;;;;;;4172944;28;20389;-52
2022/02/21 03:06:10;;;;;;;;;;;1.90;99.90;;;;;;4179713;28;19929;-53
2022/02/21 03:08:12;;;;;;;;;;;2.00;99.90;;;;;;4172806;28;19929;-53
2022/02/21 03:10:14;;;;;;;;;;;2.10;99.90;;;;;;4170572;28;19939;-53
2022/02/21 03:12:16;;;;;;;;;;;2.20;99.90;;;;;;4163824;28;19951;-52
2022/02/21 03:14:18;;;;;;;;;;;2.20;99.90;;;;;;4174872;28;20011;-50
2022/02/21 03:16:20;;;;;;;;;;;2.20;99.90;;;;;;4176609;28;19978;-52
2022/02/21 03:18:22;;;;;;;;;;;2.10;99.90;;;;;;4174650;28;20385;-54
2022/02/21 03:20:24;;;;;;;;;;;2.30;99.90;;;;;;4172432;28;19929;-52
2022/02/21 03:22:26;;;;;;;;;;;2.10;99.90;;;;;;4170055;28;19928;-53
2022/02/21 03:24:28;;;;;;;;;;;2.10;99.90;;;;;;4165012;28;19983;-52
2022/02/21 03:26:30;;;;;;;;;;;2.20;99.90;;;;;;4180288;28;19964;-53
2022/02/21 03:28:32;;;;;;;;;;;2.30;99.90;;;;;;4173071;28;19936;-52
2022/02/21 03:30:34;;;;;;;;;;;2.40;99.90;;;;;;4175058;28;19964;-53
2022/02/21 03:32:36;;;;;;;;;;;2.40;99.90;;;;;;4175548;28;19979;-53
2022/02/21 03:34:38;;;;;;;;;;;2.30;99.90;;;;;;4166704;28;19925;-53
2022/02/21 03:36:40;;;;;;;;;;;2.30;99.90;;;;;;4163479;28;19929;-53
2022/02/21 03:38:43;;;;;;;;;;;2.20;99.90;;;;;;4177038;28;20365;-53
2022/02/21 03:40:45;;;;;;;;;;;2.10;99.90;;;;;;4170509;28;20308;-53
2022/02/21 03:42:47;;;;;;;;;;;2.10;99.90;;;;;;4169860;28;19979;-52
2022/02/21 03:44:49;;;;;;;;;;;2.00;99.90;;;;;;4175449;28;19924;-53
2022/02/21 03:46:51;;;;;;;;;;;2.00;99.90;;;;;;4169620;28;19936;-52
2022/02/21 03:48:52;;;;;;;;;;;1.90;99.90;;;;;;4173044;28;20377;-53
2022/02/21 03:50:54;;;;;;;;;;;1.90;99.90;;;;;;4169739;28;19929;-53
2022/02/21 03:52:56;;;;;;;;;;;1.80;99.90;;;;;;4164070;28;19925;-52
2022/02/21 03:54:58;;;;;;;;;;;1.90;99.90;;;;;;4168828;28;20012;-52
2022/02/21 03:57:00;;;;;;;;;;;2.10;99.90;;;;;;4166534;28;19925;-54
2022/02/21 03:59:02;;;;;;;;;;;2.30;99.90;;;;;;4171839;28;19928;-53
2022/02/21 04:01:05;;;;;;;;;;;2.30;99.90;;;;;;4174624;28;20023;-52
2022/02/21 04:03:06;;;;;;;;;;;2.20;99.90;;;;;;4173641;28;20464;-53
2022/02/21 04:05:09;;;;;;;;;;;2.20;99.90;;;;;;4167780;28;19932;-52
2022/02/21 04:07:11;;;;;;;;;;;2.10;99.90;;;;;;4178096;28;19931;-52
2022/02/21 04:09:13;;;;;;;;;;;2.10;99.90;;;;;;4169252;28;19932;-53
2022/02/21 04:11:15;;;;;;;;;;;2.10;99.90;;;;;;4174074;28;19929;-53
2022/02/21 04:13:17;;;;;;;;;;;2.10;99.90;;;;;;4169377;28;19937;-53
2022/02/21 04:15:19;;;;;;;;;;;2.10;99.90;;;;;;4166313;28;20023;-53
2022/02/21 04:17:22;;;;;;;;;;;2.10;99.90;;;;;;4172734;28;19929;-53
2022/02/21 04:19:25;;;;;;;;;;;2.10;99.90;;;;;;4174438;28;19925;-53
2022/02/21 04:21:26;;;;;;;;;;;2.20;99.90;;;;;;4168672;28;20300;-52
2022/02/21 04:23:28;;;;;;;;;;;2.10;99.90;;;;;;4165879;28;19925;-52
2022/02/21 04:25:31;;;;;;;;;;;2.10;99.90;;;;;;4172365;28;19928;-53
2022/02/21 04:27:45;;;;;;;;;;;2.10;99.90;;;;;;4171702;28;20390;-54
2022/02/21 04:29:47;;;;;;;;;;;2.10;99.90;;;;;;4187490;28;20289;-53
2022/02/21 04:31:49;;;;;;;;;;;2.10;99.90;;;;;;4187218;28;19925;-52
2022/02/21 04:33:51;;;;;;;;;;;2.10;99.90;;;;;;4162656;28;19979;-53
2022/02/21 04:35:53;;;;;;;;;;;2.00;99.90;;;;;;4172549;28;19929;-53
2022/02/21 04:37:55;;;;;;;;;;;2.00;99.90;;;;;;4170656;28;19933;-53
2022/02/21 04:39:57;;;;;;;;;;;2.20;99.90;;;;;;4169590;28;19978;-53
2022/02/21 04:41:59;;;;;;;;;;;2.20;99.90;;;;;;4166309;28;19926;-52
2022/02/21 04:44:02;;;;;;;;;;;2.10;99.90;;;;;;4169584;28;20483;-52
2022/02/21 04:46:04;;;;;;;;;;;1.90;99.90;;;;;;4177838;28;20348;-53
2022/02/21 04:48:06;;;;;;;;;;;2.10;99.90;;;;;;4171557;28;19925;-52
2022/02/21 04:50:08;;;;;;;;;;;2.10;99.90;;;;;;4168803;28;19925;-52
2022/02/21 04:52:10;;;;;;;;;;;1.90;99.90;;;;;;4171095;28;19931;-52
2022/02/21 04:54:12;;;;;;;;;;;1.80;99.90;;;;;;4167754;28;19924;-53
2022/02/21 04:56:14;;;;;;;;;;;1.70;99.90;;;;;;4167027;28;19983;-53
2022/02/21 04:58:16;;;;;;;;;;;1.70;99.90;;;;;;4162500;28;19925;-53
2022/02/21 05:00:18;;;;;;;;;;;1.70;99.90;;;;;;4167132;28;19971;-53
2022/02/21 05:02:20;;;;;;;;;;;1.70;99.90;;;;;;4167552;28;19978;-52
2022/02/21 05:04:22;;;;;;;;;;;1.70;99.90;;;;;;4179192;28;20293;-53
2022/02/21 05:06:24;;;;;;;;;;;1.60;99.90;;;;;;4168104;28;19936;-53
2022/02/21 05:08:26;;;;;;;;;;;1.80;99.90;;;;;;4170703;28;20008;-53
2022/02/21 05:10:29;;;;;;;;;;;2.30;99.90;;;;;;4176276;28;19936;-53
2022/02/21 05:12:31;;;;;;;;;;;2.20;99.90;;;;;;4175351;28;20317;-53
2022/02/21 05:14:33;;;;;;;;;;;2.30;99.90;;;;;;4174086;28;19972;-54
2022/02/21 05:16:34;;;;;;;;;;;2.30;99.90;;;;;;4168205;28;20023;-53
2022/02/21 05:18:37;;;;;;;;;;;2.30;99.90;;;;;;4174909;28;19932;-53
2022/02/21 05:20:38;;;;;;;;;;;2.60;99.90;;;;;;4177222;28;20369;-54
2022/02/21 05:22:40;;;;;;;;;;;2.60;99.90;;;;;;4182577;28;19924;-53
2022/02/21 05:24:42;;;;;;;;;;;2.50;99.90;;;;;;4169000;28;19933;-53
2022/02/21 05:26:44;;;;;;;;;;;2.50;99.90;;;;;;4169163;28;19955;-53
2022/02/21 05:28:46;;;;;;;;;;;2.60;99.90;;;;;;4175289;28;19932;-54
2022/02/21 05:30:48;;;;;;;;;;;2.60;99.90;;;;;;4170769;28;20410;-53
2022/02/21 05:32:50;;;;;;;;;;;2.80;99.90;;;;;;4164847;28;19960;-54
2022/02/21 05:34:52;;;;;;;;;;;2.80;99.90;;;;;;4164316;28;20469;-53
2022/02/21 05:36:54;;;;;;;;;;;3.00;99.90;;;;;;4167016;28;19924;-54
2022/02/21 05:38:56;;;;;;;;;;;2.80;99.90;;;;;;4165767;28;19929;-53
2022/02/21 05:40:58;;;;;;;;;;;2.60;99.90;;;;;;4166869;28;20011;-53
2022/02/21 05:43:00;;;;;;;;;;;2.50;99.90;;;;;;4191139;28;19924;-54
2022/02/21 05:45:02;;;;;;;;;;;2.60;99.90;;;;;;4175838;28;20016;-53
2022/02/21 05:47:04;;;;;;;;;;;2.60;99.90;;;;;;4170049;28;21484;-54
2022/02/21 05:49:06;;;;;;;;;;;2.60;99.90;;;;;;4173322;28;20014;-54
2022/02/21 05:51:08;;;;;;;;;;;2.60;99.90;;;;;;4165774;28;19975;-53
2022/02/21 05:53:11;;;;;;;;;;;2.60;99.90;;;;;;4166898;28;19925;-53
2022/02/21 05:55:13;;;;;;;;;;;2.80;99.90;;;;;;4164994;28;19937;-54
2022/02/21 05:57:15;;;;;;;;;;;2.90;99.90;;;;;;4165865;28;19929;-54
2022/02/21 05:59:17;;;;;;;;;;;3.00;99.90;;;;;;4170120;28;19972;-54
2022/02/21 06:01:19;;;;;;;;;;;3.20;99.90;;;;;;4163180;28;19975;-53
2022/02/21 06:03:21;;;;;;;;;;;3.30;99.90;;;;;;4167970;28;19976;-52
2022/02/21 06:05:23;;;;;;;;;;;3.30;99.90;;;;;;4171533;28;19953;-53
2022/02/21 06:07:25;;;;;;;;;;;3.30;99.90;;;;;;4173509;28;19925;-54
2022/02/21 06:09:27;;;;;;;;;;;3.30;99.90;;;;;;4179892;28;20012;-53
2022/02/21 06:11:29;;;;;;;;;;;3.20;99.90;;;;;;4169235;28;19978;-54
2022/02/21 06:13:31;;;;;;;;;;;3.10;99.90;;;;;;4165165;28;19936;-53
2022/02/21 06:15:33;;;;;;;;;;;3.00;99.90;;;;;;4179434;28;19931;-53
2022/02/21 06:17:35;;;;;;;;;;;3.00;99.90;;;;;;4174893;28;20316;-54
2022/02/21 06:19:36;;;;;;;;;;;3.10;99.90;;;;;;4164581;28;20485;-54
2022/02/21 06:21:39;;;;;;;;;;;3.20;99.90;;;;;;4176235;28;19989;-52
2022/02/21 06:23:42;;;;;;;;;;;3.40;99.90;;;;;;4170334;28;20423;-54
2022/02/21 06:25:44;;;;;;;;;;;3.50;99.90;;;;;;4170650;28;20385;-53
2022/02/21 06:27:46;;;;;;;;;;;3.50;99.90;;;;;;4176526;28;19925;-53
2022/02/21 06:29:48;;;;;;;;;;;3.30;99.90;;;;;;4166498;28;20055;-53
2022/02/21 06:31:50;;;;;;;;;;;3.30;99.90;;;;;;4170665;28;20378;-53
2022/02/21 06:33:52;;;;;;;;;;;3.50;99.90;;;;;;4165097;28;19936;-52
2022/02/21 06:35:54;;;;;;;;;;;3.50;99.90;;;;;;4164529;28;19925;-54
2022/02/21 06:37:59;;;;;;;;;;;3.50;99.90;;;;;;4182134;28;20027;-54
2022/02/21 06:40:01;;;;;;;;;;;3.60;99.90;;;;;;4172043;28;19975;-54
2022/02/21 06:42:03;;;;;;;;;;;3.60;99.90;;;;;;4170706;28;19964;-53
2022/02/21 06:44:05;;;;;;;;;;;3.60;99.90;;;;;;4170999;28;20806;-54
2022/02/21 06:46:07;;;;;;;;;;;3.50;99.90;;;;;;4178444;28;19925;-53
2022/02/21 06:48:09;;;;;;;;;;;3.40;99.90;;;;;;4173704;28;19929;-53
2022/02/21 06:50:11;;;;;;;;;;;3.40;99.90;;;;;;4165566;28;19933;-53
2022/02/21 06:52:13;;;;;;;;;;;3.30;99.90;;;;;;4168197;28;19969;-51
2022/02/21 06:54:17;;;;;;;;;;;3.30;99.90;;;;;;4173872;28;20043;-54
2022/02/21 06:56:19;;;;;;;;;;;3.60;99.90;;;;;;4177701;28;20553;-53
2022/02/21 06:58:21;;;;;;;;;;;4.00;99.90;;;;;;4180120;28;19979;-54
2022/02/21 07:00:23;;;;;;;;;;;4.20;99.90;;;;;;4174670;28;19925;-52
2022/02/21 07:02:25;;;;;;;;;;;4.20;99.90;;;;;;4173340;28;19960;-55
2022/02/21 07:04:27;;;;;;;;;;;4.20;99.90;;;;;;4166821;28;19925;-53
2022/02/21 07:06:29;;;;;;;;;;;4.10;99.90;;;;;;4174763;28;19964;-54
2022/02/21 07:08:31;;;;;;;;;;;4.60;99.90;;;;;;4171593;28;20449;-54
2022/02/21 07:10:33;;;;;;;;;;;5.00;99.90;;;;;;4178628;28;20019;-54
2022/02/21 07:12:35;;;;;;;;;;;5.10;99.90;;;;;;4170516;28;20739;-54
2022/02/21 07:14:37;;;;;;;;;;;5.20;99.90;;;;;;4174720;28;19979;-54
2022/02/21 07:16:39;;;;;;;;;;;5.30;99.90;;;;;;4165097;28;19975;-54
2022/02/21 07:18:41;;;;;;;;;;;5.50;99.90;;;;;;4175578;28;20018;-53
2022/02/21 07:20:43;;;;;;;;;;;5.50;99.90;;;;;;4176386;28;20340;-54
2022/02/21 07:22:46;;;;;;;;;;;5.00;99.90;;;;;;4164289;28;20028;-54
2022/02/21 07:24:48;;;;;;;;;;;4.50;99.90;;;;;;4170571;28;19972;-52
2022/02/21 07:26:50;;;;;;;;;;;4.80;99.90;;;;;;4171805;28;19931;-53
2022/02/21 07:28:52;;;;;;;;;;;5.20;99.90;;;;;;4176447;28;20676;-54
2022/02/21 07:30:54;;;;;;;;;;;5.30;99.90;;;;;;4175691;28;19936;-53
2022/02/21 07:32:58;;;;;;;;;;;5.30;99.90;;;;;;4174196;28;19931;-53
2022/02/21 07:35:00;;;;;;;;;;;5.60;99.90;;;;;;4177469;28;19986;-54
2022/02/21 07:37:02;;;;;;;;;;;6.20;99.90;;;;;;4176005;28;20008;-54
2022/02/21 07:39:04;;;;;;;;;;;6.40;99.90;;;;;;4178445;28;19986;-53
2022/02/21 07:41:06;;;;;;;;;;;6.50;99.90;;;;;;4177197;28;19975;-53
2022/02/21 07:43:08;;;;;;;;;;;6.60;99.90;;;;;;4175141;28;19960;-54
2022/02/21 07:45:10;;;;;;;;;;;6.70;99.90;;;;;;4177338;28;19925;-53
2022/02/21 07:47:12;;;;;;;;;;;6.70;99.90;;;;;;4179733;28;19994;-53
2022/02/21 07:49:14;;;;;;;;;;;6.80;99.90;;;;;;4171156;28;19932;-54
2022/02/21 07:51:16;;;;;;;;;;;7.00;99.90;;;;;;4166374;28;20577;-54
2022/02/21 07:53:17;;;;;;;;;;;7.00;99.90;;;;;;4180533;28;20015;-54
2022/02/21 07:55:19;;;;;;;;;;;7.00;99.90;;;;;;4177756;28;19959;-54
2022/02/21 07:57:21;;;;;;;;;;;7.00;99.90;;;;;;4178553;28;20340;-54
2022/02/21 07:59:24;;;;;;;;;;;7.00;99.90;;;;;;4179250;28;19928;-53
2022/02/21 08:01:26;;;;;;;;;;;7.00;99.90;;;;;;4177978;28;20785;-54
2022/02/21 08:03:28;;;;;;;;;;;7.10;99.90;;;;;;4179151;28;19932;-53
2022/02/21 08:05:30;;;;;;;;;;;7.20;99.90;;;;;;4176925;28;19925;-53
2022/02/21 08:07:32;;;;;;;;;;;7.20;99.90;;;;;;4176205;28;20019;-53
2022/02/21 08:09:35;;;;;;;;;;;7.20;99.90;;;;;;4178522;28;19925;-52
2022/02/21 08:11:37;;;;;;;;;;;7.20;99.90;;;;;;4177871;28;19925;-54
2022/02/21 08:13:39;;;;;;;;;;;7.20;99.90;;;;;;4177373;28;19929;-54
2022/02/21 08:15:41;;;;;;;;;;;7.20;99.90;;;;;;4178983;28;19928;-53
2022/02/21 08:17:44;;;;;;;;;;;7.20;99.90;;;;;;4175728;28;19964;-54
2022/02/21 08:19:46;;;;;;;;;;;7.20;99.90;;;;;;4177318;28;19941;-54
2022/02/21 08:21:48;;;;;;;;;;;7.20;99.90;;;;;;4179606;28;19929;-54
2022/02/21 08:23:50;;;;;;;;;;;7.20;99.90;;;;;;4178219;28;20023;-55
2022/02/21 08:25:52;;;;;;;;;;;7.30;99.90;;;;;;4177569;28;20016;-54
2022/02/21 08:27:54;;;;;;;;;;;7.40;99.90;;;;;;4178805;28;20439;-53
2022/02/21 08:29:56;;;;;;;;;;;7.40;99.90;;;;;;4176078;28;19932;-53
2022/02/21 08:31:59;;;;;;;;;;;7.50;99.90;;;;;;4176469;28;19925;-53
2022/02/21 08:34:01;;;;;;;;;;;7.50;99.90;;;;;;4179905;28;19931;-54
2022/02/21 08:36:03;;;;;;;;;;;7.50;99.90;;;;;;4177386;28;19925;-53
2022/02/21 08:38:05;;;;;;;;;;;7.50;99.90;;;;;;4174457;28;20330;-53
2022/02/21 08:40:08;;;;;;;;;;;7.50;99.90;;;;;;4176566;28;20003;-54
2022/02/21 08:42:10;;;;;;;;;;;7.50;99.90;;;;;;4169011;28;19925;-54
2022/02/21 08:44:12;;;;;;;;;;;7.50;99.90;;;;;;4166699;28;19925;-54
2022/02/21 08:46:14;;;;;;;;;;;7.50;99.90;;;;;;4162752;28;19925;-54
2022/02/21 08:48:35;;;;;;;;;;;7.50;99.90;;;;;;4167757;28;20274;-54
2022/02/21 08:50:37;;;;;;;;;;;7.50;99.90;;;;;;4165806;28;19928;-52
2022/02/21 08:52:40;;;;;;;;;;;7.50;99.90;;;;;;4177389;28;19924;-54
2022/02/21 08:54:42;;;;;;;;;;;7.60;99.90;;;;;;4169168;28;20333;-54
2022/02/21 08:56:44;;;;;;;;;;;7.60;99.90;;;;;;4167821;28;20012;-53
2022/02/21 08:58:46;;;;;;;;;;;7.60;99.90;;;;;;4162808;28;19929;-54
2022/02/21 09:00:49;;;;;;;;;;;7.70;99.90;;;;;;4171574;28;19936;-54
2022/02/21 09:02:52;;;;;;;;;;;7.70;99.90;;;;;;4168127;28;20039;-54
2022/02/21 09:05:04;;;;;;;;;;;7.70;99.90;;;;;;4162750;28;20415;-53
2022/02/21 09:07:05;;;;;;;;;;;7.70;99.90;;;;;;4174347;28;19925;-53
2022/02/21 09:09:07;;;;;;;;;;;7.70;99.90;;;;;;4177465;28;19967;-54
2022/02/21 09:11:09;;;;;;;;;;;7.70;99.90;;;;;;4167888;28;19929;-54
2022/02/21 09:13:11;;;;;;;;;;;7.70;99.90;;;;;;4173308;28;19979;-54
2022/02/21 09:15:14;;;;;;;;;;;7.70;99.90;;;;;;4166435;28;19972;-53
2022/02/21 09:17:16;;;;;;;;;;;7.60;99.90;;;;;;4168986;28;19980;-54
2022/02/21 09:19:23;;;;;;;;;;;7.50;99.90;;;;;;4176501;28;19932;-53
2022/02/21 09:21:25;;;;;;;;;;;7.50;99.90;;;;;;4167593;28;20128;-54
2022/02/21 09:23:27;;;;;;;;;;;7.60;99.90;;;;;;4177905;28;19951;-54
2022/02/21 09:25:29;;;;;;;;;;;7.70;99.90;;;;;;4170080;28;19936;-54
2022/02/21 09:27:31;;;;;;;;;;;7.80;99.90;;;;;;4165186;28;19979;-54
2022/02/21 09:29:35;;;;;;;;;;;7.90;99.90;;;;;;4173100;28;20027;-53
2022/02/21 09:31:37;;;;;;;;;;;8.00;99.90;;;;;;4173652;28;19986;-53
2022/02/21 09:33:39;;;;;;;;;;;8.00;99.90;;;;;;4168504;28;19964;-53
2022/02/21 09:35:41;;;;;;;;;;;8.00;99.90;;;;;;4174866;28;19937;-54
2022/02/21 09:37:43;;;;;;;;;;;8.10;99.90;;;;;;4173684;28;19980;-53
2022/02/21 09:39:45;;;;;;;;;;;8.10;99.90;;;;;;4170809;28;19929;-54
2022/02/21 09:41:48;;;;;;;;;;;8.10;99.90;;;;;;4164045;28;19955;-54
2022/02/21 09:43:50;;;;;;;;;;;8.00;99.90;;;;;;4171924;28;19955;-53
2022/02/21 09:45:57;;;;;;;;;;;8.00;99.90;;;;;;4172546;28;19975;-54
2022/02/21 09:48:01;;;;;;;;;;;8.00;99.90;;;;;;4176710;28;20012;-53
2022/02/21 09:50:11;;;;;;;;;;;7.90;99.90;;;;;;4173516;28;19978;-53
2022/02/21 09:52:13;;;;;;;;;;;8.00;99.90;;;;;;4176657;28;19933;-54
2022/02/21 09:54:15;;;;;;;;;;;8.10;99.90;;;;;;4178470;28;20478;-53
2022/02/21 09:56:17;;;;;;;;;;;8.10;99.90;;;;;;4175294;28;19978;-53
2022/02/21 09:58:20;;;;;;;;;;;8.20;99.90;;;;;;4174513;28;19925;-54
2022/02/21 10:00:22;;;;;;;;;;;8.20;99.90;;;;;;4177370;28;19932;-54
2022/02/21 10:02:26;;;;;;;;;;;8.20;99.90;;;;;;4174997;28;20591;-54
2022/02/21 10:04:28;;;;;;;;;;;8.20;99.90;;;;;;4174727;28;19932;-53
2022/02/21 10:06:30;;;;;;;;;;;8.20;99.90;;;;;;4177979;28;19925;-54
2022/02/21 10:08:32;;;;;;;;;;;8.20;99.90;;;;;;4174559;28;19953;-53
2022/02/21 10:10:45;;;;;;;;;;;8.20;99.90;;;;;;4175826;28;19925;-54
2022/02/21 10:12:47;;;;;;;;;;;8.30;99.90;;;;;;4176872;28;19925;-54
2022/02/21 10:14:49;;;;;;;;;;;8.30;99.90;;;;;;4175163;28;19974;-53
2022/02/21 10:16:56;;;;;;;;;;;8.30;99.90;;;;;;4176173;28;19935;-53
2022/02/21 10:19:28;;;;;;;;;;;8.40;99.90;;;;;;4176132;28;19928;-53
2022/02/21 10:21:45;;;;;;;;;;;8.40;99.90;;;;;;4158888;28;19982;-54
2022/02/21 10:23:47;;;;;;;;;;;8.40;99.90;;;;;;4157003;28;20622;-54
2022/02/21 10:26:09;;;;;;;;;;;8.50;99.90;;;;;;4158637;28;19967;-54
2022/02/21 10:28:21;;;;;;;;;;;8.60;99.90;;;;;;4159060;28;20384;-54
2022/02/21 10:30:22;;;;;;;;;;;8.60;99.90;;;;;;4163800;28;19928;-54
2022/02/21 10:32:38;;;;;;;;;;;8.60;99.90;;;;;;4169386;28;19929;-54
2022/02/21 10:34:42;;;;;;;;;;;8.60;99.90;;;;;;4159227;28;20015;-53
2022/02/21 10:36:44;;;;;;;;;;;8.60;99.90;;;;;;4158700;28;19925;-53
2022/02/21 10:38:54;;;;;;;;;;;8.60;99.90;;;;;;4158897;28;20386;-54
2022/02/21 10:41:03;;;;;;;;;;;8.60;99.90;;;;;;4158576;28;20031;-54
2022/02/21 10:43:09;;;;;;;;;;;8.50;99.90;;;;;;4157229;28;20020;-53
2022/02/21 10:45:16;;;;;;;;;;;8.50;99.90;;;;;;4158654;28;20360;-53
2022/02/21 10:47:18;;;;;;;;;;;8.50;99.90;;;;;;4157943;28;20123;-54
2022/02/21 10:49:23;;;;;;;;;;;8.40;99.90;;;;;;4158286;28;19929;-54
2022/02/21 10:51:31;;;;;;;;;;;8.50;99.90;;;;;;4159542;28;20393;-54
2022/02/21 10:53:41;;;;;;;;;;;8.50;99.90;;;;;;4160049;28;19926;-54
2022/02/21 10:55:49;;;;;;;;;;;8.50;99.90;;;;;;4161428;28;19991;-54
2022/02/21 10:57:51;;;;;;;;;;;8.50;99.90;;;;;;4167269;28;19963;-53
2022/02/21 10:59:53;;;;;;;;;;;8.50;99.90;;;;;;4167677;28;19960;-54
2022/02/21 11:01:55;;;;;;;;;;;8.50;99.90;;;;;;4175414;28;19924;-53
2022/02/21 11:03:57;;;;;;;;;;;8.50;99.90;;;;;;4162240;28;19979;-53
2022/02/21 11:06:01;;;;;;;;;;;8.50;99.90;;;;;;4182362;28;19960;-54
2022/02/21 11:08:06;;;;;;;;;;;8.60;99.90;;;;;;4172705;28;19933;-54
2022/02/21 11:10:22;;;;;;;;;;;8.60;99.90;;;;;;4171131;28;20115;-52
2022/02/21 11:12:27;;;;;;;;;;;8.60;99.90;;;;;;4175852;28;19929;-54
2022/02/21 11:14:31;;;;;;;;;;;8.70;99.90;;;;;;4176221;28;19925;-53
2022/02/21 11:16:34;;;;;;;;;;;8.70;99.90;;;;;;4169385;28;20351;-54
2022/02/21 11:18:36;;;;;;;;;;;8.70;99.90;;;;;;4173331;28;19932;-54
2022/02/21 11:20:38;;;;;;;;;;;8.70;99.90;;;;;;4177991;28;20536;-55
2022/02/21 11:22:41;;;;;;;;;;;8.70;99.90;;;;;;4178493;28;19924;-53
2022/02/21 11:24:48;;;;;;;;;;;8.80;99.90;;;;;;4175374;28;19952;-54
2022/02/21 11:26:56;;;;;;;;;;;8.80;99.90;;;;;;4177494;28;19986;-53
2022/02/21 11:29:01;;;;;;;;;;;8.80;99.90;;;;;;4166485;28;20016;-54
2022/02/21 11:31:06;;;;;;;;;;;9.10;99.90;;;;;;4173432;28;19928;-54
2022/02/21 11:33:09;;;;;;;;;;;9.30;99.90;;;;;;4181509;28;19931;-55
2022/02/21 11:35:13;;;;;;;;;;;9.40;99.90;;;;;;4178370;28;20412;-53
2022/02/21 11:37:22;;;;;;;;;;;9.50;99.90;;;;;;4172615;28;20023;-54
2022/02/21 11:39:29;;;;;;;;;;;10.00;99.90;;;;;;4176684;28;19982;-54
2022/02/21 11:42:04;;;;;;;;;;;10.20;99.90;;;;;;4173242;28;19925;-54
2022/02/21 11:44:18;;;;;;;;;;;10.40;99.90;;;;;;4168283;28;19932;-54
2022/02/21 11:46:21;;;;;;;;;;;10.60;99.90;;;;;;4171088;28;20096;-54
2022/02/21 11:48:22;;;;;;;;;;;10.80;99.90;;;;;;4170522;28;19960;-53
2022/02/21 11:50:26;;;;;;;;;;;11.00;99.90;;;;;;4169980;28;20013;-53
2022/02/21 11:52:29;;;;;;;;;;;11.30;99.90;;;;;;4171148;28;19933;-53
2022/02/21 11:54:31;;;;;;;;;;;11.10;99.90;;;;;;4174325;28;19932;-54
2022/02/21 11:56:48;;;;;;;;;;;10.90;99.90;;;;;;4172586;28;20399;-55
2022/02/21 11:58:50;;;;;;;;;;;10.80;99.90;;;;;;4178767;28;19986;-54
2022/02/21 12:00:53;;;;;;;;;;;10.60;99.90;;;;;;4178216;28;20425;-54
2022/02/21 12:03:14;;;;;;;;;;;10.50;99.90;;;;;;4172100;28;19932;-55
2022/02/21 12:05:24;;;;;;;;;;;10.50;99.90;;;;;;4179518;28;19935;-55